Disclaimer

Please do not use the information listed here in-flight or in-navigation, as they are not provided to us by the airports but are provided by volunteers, so they might be outdated.

Search


Regions


Airport information page

Radio informations:
Tower (TWR) - 118.3 MHz
Approach (APP) - 119.6 MHz
CON - 119.3 MHz

Airport informations:
Latitude: 06° 52' 41.20" S
Longitude: 039° 12' 09.45" E
Elevation: 182 feet - 55 meters
Operating hours: N/A
Operating agency: Civil government, landing fees and diplomatic clearance may be required
Timezone: UTC+3
Fuel: Jet A1, without icing nhibitor.

100/130 MIL Spec, low lead, aviation gasoline (BLUE)

Runway information:
05/23 - 9843 x 151 feet< - >3000 x 46 meters
14/32 - 3280 x 98 feet< - >1000 x 30 meters

Recent METARs:
HTDA 160200Z 00000KT 9999 FEW012 26/25 Q1013 NOSIG
HTDA 160200Z 00000KT 9999 FEW012 26/25 Q1013 NOSIG
HTDA 160300Z 00000KT 9999 FEW013 FEW016 26/25 Q1014 NOSIG

Airport on the map: